sensor_id;sensor_type;location;lat;lon;timestamp;P1;durP1;ratioP1;P2;durP2;ratioP2
8421;SDS011;4248;48.196;10.924;2023-05-06T00:00:58;8.70;;;5.10;;
8421;SDS011;4248;48.196;10.924;2023-05-06T00:03:24;7.93;;;5.13;;
8421;SDS011;4248;48.196;10.924;2023-05-06T00:05:50;5.97;;;4.60;;
8421;SDS011;4248;48.196;10.924;2023-05-06T00:08:15;9.27;;;4.80;;
8421;SDS011;4248;48.196;10.924;2023-05-06T00:10:41;9.60;;;5.73;;
8421;SDS011;4248;48.196;10.924;2023-05-06T00:13:07;7.33;;;4.90;;
8421;SDS011;4248;48.196;10.924;2023-05-06T00:15:33;11.73;;;4.80;;
8421;SDS011;4248;48.196;10.924;2023-05-06T00:17:59;8.47;;;4.60;;
8421;SDS011;4248;48.196;10.924;2023-05-06T00:20:25;6.80;;;4.30;;
8421;SDS011;4248;48.196;10.924;2023-05-06T00:22:51;6.17;;;4.97;;
8421;SDS011;4248;48.196;10.924;2023-05-06T00:25:17;7.20;;;4.90;;
8421;SDS011;4248;48.196;10.924;2023-05-06T00:27:43;9.17;;;4.93;;
8421;SDS011;4248;48.196;10.924;2023-05-06T00:30:09;8.53;;;4.30;;
8421;SDS011;4248;48.196;10.924;2023-05-06T00:32:35;5.60;;;3.70;;
8421;SDS011;4248;48.196;10.924;2023-05-06T00:35:00;4.97;;;3.33;;
8421;SDS011;4248;48.196;10.924;2023-05-06T00:37:27;2.90;;;2.00;;
8421;SDS011;4248;48.196;10.924;2023-05-06T00:39:53;4.10;;;2.20;;
8421;SDS011;4248;48.196;10.924;2023-05-06T00:42:18;4.60;;;2.80;;
8421;SDS011;4248;48.196;10.924;2023-05-06T00:44:47;4.33;;;2.80;;
8421;SDS011;4248;48.196;10.924;2023-05-06T00:47:13;5.33;;;3.93;;
8421;SDS011;4248;48.196;10.924;2023-05-06T00:49:39;10.43;;;4.17;;
8421;SDS011;4248;48.196;10.924;2023-05-06T00:52:05;5.70;;;3.40;;
8421;SDS011;4248;48.196;10.924;2023-05-06T00:54:32;4.60;;;3.40;;
8421;SDS011;4248;48.196;10.924;2023-05-06T00:56:58;7.17;;;3.23;;
8421;SDS011;4248;48.196;10.924;2023-05-06T00:59:23;5.50;;;3.77;;
8421;SDS011;4248;48.196;10.924;2023-05-06T01:01:49;5.70;;;4.00;;
8421;SDS011;4248;48.196;10.924;2023-05-06T01:04:16;7.80;;;4.63;;
8421;SDS011;4248;48.196;10.924;2023-05-06T01:06:49;6.97;;;4.50;;
8421;SDS011;4248;48.196;10.924;2023-05-06T01:17:43;9.10;;;5.03;;
8421;SDS011;4248;48.196;10.924;2023-05-06T01:20:14;7.43;;;5.10;;
8421;SDS011;4248;48.196;10.924;2023-05-06T01:22:41;6.97;;;4.67;;
8421;SDS011;4248;48.196;10.924;2023-05-06T01:25:16;7.20;;;4.60;;
8421;SDS011;4248;48.196;10.924;2023-05-06T01:27:43;6.40;;;3.93;;
8421;SDS011;4248;48.196;10.924;2023-05-06T01:30:09;7.87;;;4.43;;
8421;SDS011;4248;48.196;10.924;2023-05-06T01:35:17;6.43;;;3.70;;
8421;SDS011;4248;48.196;10.924;2023-05-06T01:40:20;5.50;;;3.50;;
8421;SDS011;4248;48.196;10.924;2023-05-06T01:42:50;4.97;;;3.70;;
8421;SDS011;4248;48.196;10.924;2023-05-06T01:45:17;6.03;;;3.90;;
8421;SDS011;4248;48.196;10.924;2023-05-06T01:47:45;7.20;;;4.13;;
8421;SDS011;4248;48.196;10.924;2023-05-06T01:50:11;4.67;;;3.63;;
8421;SDS011;4248;48.196;10.924;2023-05-06T01:52:37;9.20;;;5.30;;
8421;SDS011;4248;48.196;10.924;2023-05-06T01:55:03;9.17;;;5.27;;
8421;SDS011;4248;48.196;10.924;2023-05-06T01:57:29;8.27;;;5.73;;
8421;SDS011;4248;48.196;10.924;2023-05-06T01:59:55;10.73;;;6.20;;
8421;SDS011;4248;48.196;10.924;2023-05-06T02:02:20;13.70;;;7.87;;
8421;SDS011;4248;48.196;10.924;2023-05-06T02:04:48;10.47;;;7.10;;
8421;SDS011;4248;48.196;10.924;2023-05-06T02:07:13;15.93;;;7.17;;
8421;SDS011;4248;48.196;10.924;2023-05-06T02:09:39;8.67;;;6.53;;
8421;SDS011;4248;48.196;10.924;2023-05-06T02:12:05;10.40;;;6.60;;
8421;SDS011;4248;48.196;10.924;2023-05-06T02:14:30;11.93;;;6.70;;
8421;SDS011;4248;48.196;10.924;2023-05-06T02:16:56;12.30;;;7.57;;
8421;SDS011;4248;48.196;10.924;2023-05-06T02:19:21;12.27;;;7.30;;
8421;SDS011;4248;48.196;10.924;2023-05-06T02:21:47;11.20;;;7.20;;
8421;SDS011;4248;48.196;10.924;2023-05-06T02:24:13;13.47;;;7.53;;
8421;SDS011;4248;48.196;10.924;2023-05-06T02:26:38;10.97;;;7.23;;
8421;SDS011;4248;48.196;10.924;2023-05-06T02:29:04;13.27;;;7.73;;
8421;SDS011;4248;48.196;10.924;2023-05-06T02:31:30;11.50;;;7.57;;
8421;SDS011;4248;48.196;10.924;2023-05-06T02:33:55;12.83;;;8.03;;
8421;SDS011;4248;48.196;10.924;2023-05-06T02:36:21;13.30;;;8.20;;
8421;SDS011;4248;48.196;10.924;2023-05-06T02:38:47;9.67;;;6.60;;
8421;SDS011;4248;48.196;10.924;2023-05-06T02:41:12;16.80;;;7.03;;
8421;SDS011;4248;48.196;10.924;2023-05-06T02:43:38;11.50;;;6.73;;
8421;SDS011;4248;48.196;10.924;2023-05-06T02:46:03;8.27;;;5.47;;
8421;SDS011;4248;48.196;10.924;2023-05-06T02:48:29;11.20;;;5.73;;
8421;SDS011;4248;48.196;10.924;2023-05-06T02:50:54;6.30;;;4.60;;
8421;SDS011;4248;48.196;10.924;2023-05-06T02:53:20;5.83;;;4.40;;
8421;SDS011;4248;48.196;10.924;2023-05-06T02:55:46;8.10;;;5.00;;
8421;SDS011;4248;48.196;10.924;2023-05-06T02:58:11;9.10;;;5.20;;
8421;SDS011;4248;48.196;10.924;2023-05-06T03:00:37;7.50;;;5.80;;
8421;SDS011;4248;48.196;10.924;2023-05-06T03:03:02;11.00;;;7.20;;
8421;SDS011;4248;48.196;10.924;2023-05-06T03:05:28;13.83;;;9.10;;
8421;SDS011;4248;48.196;10.924;2023-05-06T03:07:54;12.23;;;8.37;;
8421;SDS011;4248;48.196;10.924;2023-05-06T03:10:20;14.57;;;8.93;;
8421;SDS011;4248;48.196;10.924;2023-05-06T03:12:45;12.67;;;8.67;;
8421;SDS011;4248;48.196;10.924;2023-05-06T03:15:11;11.60;;;8.20;;
8421;SDS011;4248;48.196;10.924;2023-05-06T03:17:36;11.30;;;8.87;;
8421;SDS011;4248;48.196;10.924;2023-05-06T03:20:02;12.57;;;8.83;;
8421;SDS011;4248;48.196;10.924;2023-05-06T03:22:29;13.67;;;8.97;;
8421;SDS011;4248;48.196;10.924;2023-05-06T03:24:55;19.10;;;10.57;;
8421;SDS011;4248;48.196;10.924;2023-05-06T03:27:20;22.37;;;10.80;;
8421;SDS011;4248;48.196;10.924;2023-05-06T03:29:46;17.70;;;10.83;;
8421;SDS011;4248;48.196;10.924;2023-05-06T03:32:11;13.80;;;8.63;;
8421;SDS011;4248;48.196;10.924;2023-05-06T03:34:37;12.50;;;9.00;;
8421;SDS011;4248;48.196;10.924;2023-05-06T03:37:02;14.57;;;9.37;;
8421;SDS011;4248;48.196;10.924;2023-05-06T03:39:28;17.17;;;10.07;;
8421;SDS011;4248;48.196;10.924;2023-05-06T03:41:53;16.37;;;9.27;;
8421;SDS011;4248;48.196;10.924;2023-05-06T03:44:19;15.20;;;9.20;;
8421;SDS011;4248;48.196;10.924;2023-05-06T03:46:45;14.13;;;10.20;;
8421;SDS011;4248;48.196;10.924;2023-05-06T03:49:10;15.77;;;10.00;;
8421;SDS011;4248;48.196;10.924;2023-05-06T03:51:36;14.30;;;10.10;;
8421;SDS011;4248;48.196;10.924;2023-05-06T03:54:01;16.27;;;10.67;;
8421;SDS011;4248;48.196;10.924;2023-05-06T03:56:27;17.90;;;11.87;;
8421;SDS011;4248;48.196;10.924;2023-05-06T03:58:53;19.33;;;10.43;;
8421;SDS011;4248;48.196;10.924;2023-05-06T04:01:18;16.60;;;10.50;;
8421;SDS011;4248;48.196;10.924;2023-05-06T04:03:44;11.30;;;7.70;;
8421;SDS011;4248;48.196;10.924;2023-05-06T04:06:10;16.13;;;7.43;;
8421;SDS011;4248;48.196;10.924;2023-05-06T04:08:36;10.67;;;7.13;;
8421;SDS011;4248;48.196;10.924;2023-05-06T04:11:04;11.43;;;8.10;;
8421;SDS011;4248;48.196;10.924;2023-05-06T04:13:31;11.30;;;8.87;;
8421;SDS011;4248;48.196;10.924;2023-05-06T04:15:57;19.90;;;11.00;;
8421;SDS011;4248;48.196;10.924;2023-05-06T04:18:23;18.10;;;11.57;;
8421;SDS011;4248;48.196;10.924;2023-05-06T04:20:48;17.10;;;11.70;;
8421;SDS011;4248;48.196;10.924;2023-05-06T04:23:14;23.00;;;11.07;;
8421;SDS011;4248;48.196;10.924;2023-05-06T04:25:40;15.20;;;10.53;;
8421;SDS011;4248;48.196;10.924;2023-05-06T04:28:12;13.10;;;9.80;;
8421;SDS011;4248;48.196;10.924;2023-05-06T04:30:40;14.70;;;10.60;;
8421;SDS011;4248;48.196;10.924;2023-05-06T04:33:06;11.27;;;9.30;;
8421;SDS011;4248;48.196;10.924;2023-05-06T04:35:32;11.80;;;8.87;;
8421;SDS011;4248;48.196;10.924;2023-05-06T04:37:58;11.27;;;8.47;;
8421;SDS011;4248;48.196;10.924;2023-05-06T04:40:25;13.03;;;8.10;;
8421;SDS011;4248;48.196;10.924;2023-05-06T04:42:51;11.13;;;7.73;;
8421;SDS011;4248;48.196;10.924;2023-05-06T04:45:17;9.70;;;7.13;;
8421;SDS011;4248;48.196;10.924;2023-05-06T04:47:43;8.17;;;6.33;;
8421;SDS011;4248;48.196;10.924;2023-05-06T04:50:09;11.30;;;6.63;;
8421;SDS011;4248;48.196;10.924;2023-05-06T04:52:35;8.77;;;6.87;;
8421;SDS011;4248;48.196;10.924;2023-05-06T04:55:01;8.00;;;5.40;;
8421;SDS011;4248;48.196;10.924;2023-05-06T04:57:27;8.33;;;4.47;;
8421;SDS011;4248;48.196;10.924;2023-05-06T04:59:54;6.40;;;4.37;;
8421;SDS011;4248;48.196;10.924;2023-05-06T05:02:19;6.63;;;4.20;;
8421;SDS011;4248;48.196;10.924;2023-05-06T05:04:45;5.67;;;4.23;;
8421;SDS011;4248;48.196;10.924;2023-05-06T05:07:10;4.80;;;3.87;;
8421;SDS011;4248;48.196;10.924;2023-05-06T05:09:36;7.63;;;4.23;;
8421;SDS011;4248;48.196;10.924;2023-05-06T05:12:02;7.83;;;5.07;;
8421;SDS011;4248;48.196;10.924;2023-05-06T05:14:28;13.63;;;4.77;;
8421;SDS011;4248;48.196;10.924;2023-05-06T05:16:53;6.40;;;4.50;;
8421;SDS011;4248;48.196;10.924;2023-05-06T05:19:19;6.70;;;5.20;;
8421;SDS011;4248;48.196;10.924;2023-05-06T05:21:45;5.87;;;4.67;;
8421;SDS011;4248;48.196;10.924;2023-05-06T05:24:11;8.10;;;4.67;;
8421;SDS011;4248;48.196;10.924;2023-05-06T05:26:36;7.20;;;4.73;;
8421;SDS011;4248;48.196;10.924;2023-05-06T05:29:02;12.20;;;4.37;;
8421;SDS011;4248;48.196;10.924;2023-05-06T05:31:27;6.57;;;4.70;;
8421;SDS011;4248;48.196;10.924;2023-05-06T05:33:55;6.80;;;5.50;;
8421;SDS011;4248;48.196;10.924;2023-05-06T05:36:20;8.57;;;5.33;;
8421;SDS011;4248;48.196;10.924;2023-05-06T05:38:47;7.77;;;4.73;;
8421;SDS011;4248;48.196;10.924;2023-05-06T05:41:13;12.57;;;4.63;;
8421;SDS011;4248;48.196;10.924;2023-05-06T05:43:39;7.90;;;5.00;;
8421;SDS011;4248;48.196;10.924;2023-05-06T05:46:04;9.47;;;5.17;;
8421;SDS011;4248;48.196;10.924;2023-05-06T05:48:30;9.80;;;5.70;;
8421;SDS011;4248;48.196;10.924;2023-05-06T05:50:56;8.70;;;4.70;;
8421;SDS011;4248;48.196;10.924;2023-05-06T05:53:22;9.80;;;5.83;;
8421;SDS011;4248;48.196;10.924;2023-05-06T05:55:48;10.37;;;6.10;;
8421;SDS011;4248;48.196;10.924;2023-05-06T05:58:13;10.87;;;6.87;;
8421;SDS011;4248;48.196;10.924;2023-05-06T06:00:39;9.47;;;5.90;;
8421;SDS011;4248;48.196;10.924;2023-05-06T06:03:05;12.60;;;7.40;;
8421;SDS011;4248;48.196;10.924;2023-05-06T06:05:30;8.67;;;6.50;;
8421;SDS011;4248;48.196;10.924;2023-05-06T06:07:57;13.00;;;8.57;;
8421;SDS011;4248;48.196;10.924;2023-05-06T06:10:23;9.07;;;7.20;;
8421;SDS011;4248;48.196;10.924;2023-05-06T06:12:48;9.50;;;7.00;;
8421;SDS011;4248;48.196;10.924;2023-05-06T06:15:14;24.47;;;15.17;;
8421;SDS011;4248;48.196;10.924;2023-05-06T06:17:39;26.50;;;16.47;;
8421;SDS011;4248;48.196;10.924;2023-05-06T06:20:05;11.97;;;8.77;;
8421;SDS011;4248;48.196;10.924;2023-05-06T06:22:32;10.77;;;7.67;;
8421;SDS011;4248;48.196;10.924;2023-05-06T06:24:57;9.63;;;7.20;;
8421;SDS011;4248;48.196;10.924;2023-05-06T06:27:23;8.70;;;6.40;;
8421;SDS011;4248;48.196;10.924;2023-05-06T06:29:48;11.50;;;6.87;;
8421;SDS011;4248;48.196;10.924;2023-05-06T06:32:14;10.57;;;7.70;;
8421;SDS011;4248;48.196;10.924;2023-05-06T06:34:40;11.73;;;7.10;;
8421;SDS011;4248;48.196;10.924;2023-05-06T06:37:08;12.30;;;8.17;;
8421;SDS011;4248;48.196;10.924;2023-05-06T06:39:34;11.73;;;7.60;;
8421;SDS011;4248;48.196;10.924;2023-05-06T06:42:00;11.93;;;7.10;;
8421;SDS011;4248;48.196;10.924;2023-05-06T06:44:28;11.47;;;6.97;;
8421;SDS011;4248;48.196;10.924;2023-05-06T06:46:54;12.07;;;7.60;;
8421;SDS011;4248;48.196;10.924;2023-05-06T06:49:20;11.43;;;7.83;;
8421;SDS011;4248;48.196;10.924;2023-05-06T06:51:45;12.30;;;8.00;;
8421;SDS011;4248;48.196;10.924;2023-05-06T06:54:11;11.03;;;7.20;;
8421;SDS011;4248;48.196;10.924;2023-05-06T06:56:36;13.80;;;8.50;;
8421;SDS011;4248;48.196;10.924;2023-05-06T06:59:02;10.17;;;7.20;;
8421;SDS011;4248;48.196;10.924;2023-05-06T07:01:28;13.03;;;7.83;;
8421;SDS011;4248;48.196;10.924;2023-05-06T07:03:53;10.73;;;7.20;;
8421;SDS011;4248;48.196;10.924;2023-05-06T07:06:19;12.83;;;7.17;;
8421;SDS011;4248;48.196;10.924;2023-05-06T07:08:44;13.27;;;7.70;;
8421;SDS011;4248;48.196;10.924;2023-05-06T07:11:10;12.60;;;6.97;;
8421;SDS011;4248;48.196;10.924;2023-05-06T07:13:36;10.13;;;7.30;;
8421;SDS011;4248;48.196;10.924;2023-05-06T07:16:01;11.60;;;7.73;;
8421;SDS011;4248;48.196;10.924;2023-05-06T07:18:27;9.47;;;6.60;;
8421;SDS011;4248;48.196;10.924;2023-05-06T07:20:52;12.00;;;6.90;;
8421;SDS011;4248;48.196;10.924;2023-05-06T07:23:18;8.73;;;6.23;;
8421;SDS011;4248;48.196;10.924;2023-05-06T07:25:44;10.37;;;5.67;;
8421;SDS011;4248;48.196;10.924;2023-05-06T07:28:09;14.70;;;6.60;;
8421;SDS011;4248;48.196;10.924;2023-05-06T07:30:36;10.63;;;6.43;;
8421;SDS011;4248;48.196;10.924;2023-05-06T07:33:03;10.23;;;5.83;;
8421;SDS011;4248;48.196;10.924;2023-05-06T07:35:29;10.60;;;5.40;;
8421;SDS011;4248;48.196;10.924;2023-05-06T07:37:54;10.10;;;5.77;;
8421;SDS011;4248;48.196;10.924;2023-05-06T07:40:20;7.17;;;5.40;;
8421;SDS011;4248;48.196;10.924;2023-05-06T07:42:46;12.30;;;5.83;;
8421;SDS011;4248;48.196;10.924;2023-05-06T07:45:11;9.40;;;5.97;;
8421;SDS011;4248;48.196;10.924;2023-05-06T07:47:37;9.87;;;5.70;;
8421;SDS011;4248;48.196;10.924;2023-05-06T07:50:02;8.70;;;6.20;;
8421;SDS011;4248;48.196;10.924;2023-05-06T07:52:30;7.53;;;5.63;;
8421;SDS011;4248;48.196;10.924;2023-05-06T07:54:55;8.10;;;4.67;;
8421;SDS011;4248;48.196;10.924;2023-05-06T07:57:21;6.67;;;4.87;;
8421;SDS011;4248;48.196;10.924;2023-05-06T07:59:47;7.97;;;5.80;;
8421;SDS011;4248;48.196;10.924;2023-05-06T08:02:13;6.30;;;4.90;;
8421;SDS011;4248;48.196;10.924;2023-05-06T08:04:39;7.83;;;5.50;;
8421;SDS011;4248;48.196;10.924;2023-05-06T08:07:05;6.97;;;5.30;;
8421;SDS011;4248;48.196;10.924;2023-05-06T08:09:31;9.67;;;5.07;;
8421;SDS011;4248;48.196;10.924;2023-05-06T08:11:56;8.83;;;5.10;;
8421;SDS011;4248;48.196;10.924;2023-05-06T08:14:22;7.93;;;5.73;;
8421;SDS011;4248;48.196;10.924;2023-05-06T08:16:50;8.27;;;5.43;;
8421;SDS011;4248;48.196;10.924;2023-05-06T08:19:16;9.87;;;5.60;;
8421;SDS011;4248;48.196;10.924;2023-05-06T08:21:41;7.10;;;5.07;;
8421;SDS011;4248;48.196;10.924;2023-05-06T08:24:07;9.00;;;5.47;;
8421;SDS011;4248;48.196;10.924;2023-05-06T08:26:34;8.73;;;5.10;;
8421;SDS011;4248;48.196;10.924;2023-05-06T08:29:00;5.43;;;4.20;;
8421;SDS011;4248;48.196;10.924;2023-05-06T08:31:27;8.50;;;4.50;;
8421;SDS011;4248;48.196;10.924;2023-05-06T08:33:52;10.17;;;5.27;;
8421;SDS011;4248;48.196;10.924;2023-05-06T08:36:18;11.80;;;5.10;;
8421;SDS011;4248;48.196;10.924;2023-05-06T08:38:44;14.33;;;5.90;;
8421;SDS011;4248;48.196;10.924;2023-05-06T08:41:14;10.70;;;5.10;;
8421;SDS011;4248;48.196;10.924;2023-05-06T08:43:42;8.17;;;5.13;;
8421;SDS011;4248;48.196;10.924;2023-05-06T08:46:10;8.17;;;5.87;;
8421;SDS011;4248;48.196;10.924;2023-05-06T08:48:37;9.47;;;5.40;;
8421;SDS011;4248;48.196;10.924;2023-05-06T08:51:03;10.87;;;6.13;;
8421;SDS011;4248;48.196;10.924;2023-05-06T08:53:29;8.60;;;5.60;;
8421;SDS011;4248;48.196;10.924;2023-05-06T08:55:58;8.33;;;5.77;;
8421;SDS011;4248;48.196;10.924;2023-05-06T08:58:28;7.67;;;5.50;;
8421;SDS011;4248;48.196;10.924;2023-05-06T09:00:56;9.30;;;6.10;;
8421;SDS011;4248;48.196;10.924;2023-05-06T09:03:23;7.43;;;5.40;;
8421;SDS011;4248;48.196;10.924;2023-05-06T09:05:49;8.47;;;5.77;;
8421;SDS011;4248;48.196;10.924;2023-05-06T09:08:15;9.40;;;5.50;;
8421;SDS011;4248;48.196;10.924;2023-05-06T09:10:44;8.43;;;4.60;;
8421;SDS011;4248;48.196;10.924;2023-05-06T09:13:14;8.20;;;5.07;;
8421;SDS011;4248;48.196;10.924;2023-05-06T09:15:41;9.50;;;4.63;;
8421;SDS011;4248;48.196;10.924;2023-05-06T09:18:08;7.40;;;5.20;;
8421;SDS011;4248;48.196;10.924;2023-05-06T09:20:34;7.03;;;4.97;;
8421;SDS011;4248;48.196;10.924;2023-05-06T09:23:00;7.50;;;4.93;;
8421;SDS011;4248;48.196;10.924;2023-05-06T09:25:27;9.23;;;5.30;;
8421;SDS011;4248;48.196;10.924;2023-05-06T09:28:03;7.50;;;4.73;;
8421;SDS011;4248;48.196;10.924;2023-05-06T09:30:39;10.80;;;3.90;;
8421;SDS011;4248;48.196;10.924;2023-05-06T09:33:06;7.50;;;4.83;;
8421;SDS011;4248;48.196;10.924;2023-05-06T09:35:39;6.90;;;5.07;;
8421;SDS011;4248;48.196;10.924;2023-05-06T09:38:06;7.20;;;4.43;;
8421;SDS011;4248;48.196;10.924;2023-05-06T09:40:34;7.77;;;4.07;;
8421;SDS011;4248;48.196;10.924;2023-05-06T09:43:00;8.13;;;5.10;;
8421;SDS011;4248;48.196;10.924;2023-05-06T09:45:27;5.90;;;4.23;;
8421;SDS011;4248;48.196;10.924;2023-05-06T09:47:52;9.23;;;4.53;;
8421;SDS011;4248;48.196;10.924;2023-05-06T09:50:22;5.80;;;4.23;;
8421;SDS011;4248;48.196;10.924;2023-05-06T09:52:49;9.10;;;4.50;;
8421;SDS011;4248;48.196;10.924;2023-05-06T09:55:18;8.20;;;4.63;;
8421;SDS011;4248;48.196;10.924;2023-05-06T09:57:45;8.90;;;4.37;;
8421;SDS011;4248;48.196;10.924;2023-05-06T10:00:12;9.80;;;4.70;;
8421;SDS011;4248;48.196;10.924;2023-05-06T10:02:39;8.27;;;4.07;;
8421;SDS011;4248;48.196;10.924;2023-05-06T10:05:05;9.00;;;3.90;;
8421;SDS011;4248;48.196;10.924;2023-05-06T10:07:33;9.83;;;3.70;;
8421;SDS011;4248;48.196;10.924;2023-05-06T10:10:00;17.73;;;4.47;;
8421;SDS011;4248;48.196;10.924;2023-05-06T10:12:27;6.10;;;3.60;;
8421;SDS011;4248;48.196;10.924;2023-05-06T10:14:53;5.27;;;3.83;;
8421;SDS011;4248;48.196;10.924;2023-05-06T10:17:20;6.53;;;4.00;;
8421;SDS011;4248;48.196;10.924;2023-05-06T10:19:56;6.60;;;2.97;;
8421;SDS011;4248;48.196;10.924;2023-05-06T10:25:19;4.23;;;2.70;;
8421;SDS011;4248;48.196;10.924;2023-05-06T10:27:54;7.77;;;3.20;;
8421;SDS011;4248;48.196;10.924;2023-05-06T10:30:19;5.80;;;3.17;;
8421;SDS011;4248;48.196;10.924;2023-05-06T10:32:46;4.00;;;2.90;;
8421;SDS011;4248;48.196;10.924;2023-05-06T10:35:18;6.70;;;3.40;;
8421;SDS011;4248;48.196;10.924;2023-05-06T10:37:56;5.97;;;3.10;;
8421;SDS011;4248;48.196;10.924;2023-05-06T10:40:23;6.17;;;2.57;;
8421;SDS011;4248;48.196;10.924;2023-05-06T10:42:49;5.90;;;2.60;;
8421;SDS011;4248;48.196;10.924;2023-05-06T10:45:15;3.97;;;2.33;;
8421;SDS011;4248;48.196;10.924;2023-05-06T10:50:22;5.30;;;3.40;;
8421;SDS011;4248;48.196;10.924;2023-05-06T10:52:49;8.63;;;3.50;;
8421;SDS011;4248;48.196;10.924;2023-05-06T10:55:35;5.97;;;3.10;;
8421;SDS011;4248;48.196;10.924;2023-05-06T11:00:31;6.90;;;3.20;;
8421;SDS011;4248;48.196;10.924;2023-05-06T11:03:01;6.33;;;3.73;;
8421;SDS011;4248;48.196;10.924;2023-05-06T11:05:30;5.60;;;3.07;;
8421;SDS011;4248;48.196;10.924;2023-05-06T11:08:08;5.00;;;3.30;;
8421;SDS011;4248;48.196;10.924;2023-05-06T11:10:34;7.10;;;3.30;;
8421;SDS011;4248;48.196;10.924;2023-05-06T11:15:45;4.90;;;3.20;;
8421;SDS011;4248;48.196;10.924;2023-05-06T11:20:49;6.03;;;3.20;;
8421;SDS011;4248;48.196;10.924;2023-05-06T11:23:17;7.27;;;3.60;;
8421;SDS011;4248;48.196;10.924;2023-05-06T11:25:43;5.10;;;2.67;;
8421;SDS011;4248;48.196;10.924;2023-05-06T11:28:11;5.73;;;2.50;;
8421;SDS011;4248;48.196;10.924;2023-05-06T11:30:39;6.40;;;2.63;;
8421;SDS011;4248;48.196;10.924;2023-05-06T11:33:07;6.00;;;2.63;;
8421;SDS011;4248;48.196;10.924;2023-05-06T11:35:34;5.13;;;2.60;;
8421;SDS011;4248;48.196;10.924;2023-05-06T11:38:03;3.43;;;1.93;;
8421;SDS011;4248;48.196;10.924;2023-05-06T11:40:29;3.87;;;2.37;;
8421;SDS011;4248;48.196;10.924;2023-05-06T11:43:14;4.43;;;2.03;;
8421;SDS011;4248;48.196;10.924;2023-05-06T11:45:44;4.40;;;2.10;;
8421;SDS011;4248;48.196;10.924;2023-05-06T11:48:14;4.13;;;2.03;;
8421;SDS011;4248;48.196;10.924;2023-05-06T11:50:44;5.10;;;2.53;;
8421;SDS011;4248;48.196;10.924;2023-05-06T11:53:14;4.80;;;2.30;;
8421;SDS011;4248;48.196;10.924;2023-05-06T11:55:43;4.77;;;2.40;;
8421;SDS011;4248;48.196;10.924;2023-05-06T12:01:04;8.10;;;2.60;;
8421;SDS011;4248;48.196;10.924;2023-05-06T12:03:30;5.73;;;2.30;;
8421;SDS011;4248;48.196;10.924;2023-05-06T12:05:56;17.10;;;3.10;;
8421;SDS011;4248;48.196;10.924;2023-05-06T12:08:24;4.27;;;2.60;;
8421;SDS011;4248;48.196;10.924;2023-05-06T12:11:00;6.23;;;2.27;;
8421;SDS011;4248;48.196;10.924;2023-05-06T12:13:27;12.40;;;2.30;;
8421;SDS011;4248;48.196;10.924;2023-05-06T12:15:54;3.93;;;2.10;;
8421;SDS011;4248;48.196;10.924;2023-05-06T12:18:21;5.00;;;1.70;;
8421;SDS011;4248;48.196;10.924;2023-05-06T12:20:48;4.40;;;2.30;;
8421;SDS011;4248;48.196;10.924;2023-05-06T12:23:14;8.93;;;2.30;;
8421;SDS011;4248;48.196;10.924;2023-05-06T12:25:41;4.57;;;1.77;;
8421;SDS011;4248;48.196;10.924;2023-05-06T12:28:14;6.07;;;1.80;;
8421;SDS011;4248;48.196;10.924;2023-05-06T12:30:43;6.27;;;2.00;;
8421;SDS011;4248;48.196;10.924;2023-05-06T12:33:09;4.40;;;1.63;;
8421;SDS011;4248;48.196;10.924;2023-05-06T12:35:36;5.23;;;1.93;;
8421;SDS011;4248;48.196;10.924;2023-05-06T12:38:06;4.30;;;2.07;;
8421;SDS011;4248;48.196;10.924;2023-05-06T12:40:40;3.37;;;1.90;;
8421;SDS011;4248;48.196;10.924;2023-05-06T12:43:07;3.13;;;1.80;;
8421;SDS011;4248;48.196;10.924;2023-05-06T12:45:33;5.60;;;2.50;;
8421;SDS011;4248;48.196;10.924;2023-05-06T12:48:00;4.27;;;2.33;;
8421;SDS011;4248;48.196;10.924;2023-05-06T12:50:30;9.27;;;2.20;;
8421;SDS011;4248;48.196;10.924;2023-05-06T12:53:06;6.13;;;1.90;;
8421;SDS011;4248;48.196;10.924;2023-05-06T12:55:36;3.97;;;1.83;;
8421;SDS011;4248;48.196;10.924;2023-05-06T12:58:02;5.37;;;1.90;;
8421;SDS011;4248;48.196;10.924;2023-05-06T13:00:28;3.50;;;1.90;;
8421;SDS011;4248;48.196;10.924;2023-05-06T13:02:54;7.23;;;1.80;;
8421;SDS011;4248;48.196;10.924;2023-05-06T13:05:20;9.00;;;1.70;;
8421;SDS011;4248;48.196;10.924;2023-05-06T13:07:46;4.17;;;1.60;;
8421;SDS011;4248;48.196;10.924;2023-05-06T13:10:11;4.37;;;1.67;;
8421;SDS011;4248;48.196;10.924;2023-05-06T13:12:37;3.90;;;2.20;;
8421;SDS011;4248;48.196;10.924;2023-05-06T13:15:03;4.07;;;1.40;;
8421;SDS011;4248;48.196;10.924;2023-05-06T13:17:29;4.17;;;1.67;;
8421;SDS011;4248;48.196;10.924;2023-05-06T13:19:54;4.60;;;1.53;;
8421;SDS011;4248;48.196;10.924;2023-05-06T13:22:21;3.00;;;1.60;;
8421;SDS011;4248;48.196;10.924;2023-05-06T13:24:48;8.67;;;1.90;;
8421;SDS011;4248;48.196;10.924;2023-05-06T13:27:13;5.10;;;1.90;;
8421;SDS011;4248;48.196;10.924;2023-05-06T13:29:39;8.40;;;1.80;;
8421;SDS011;4248;48.196;10.924;2023-05-06T13:32:05;5.27;;;1.70;;
8421;SDS011;4248;48.196;10.924;2023-05-06T13:34:30;6.47;;;1.77;;
8421;SDS011;4248;48.196;10.924;2023-05-06T13:36:56;3.40;;;1.33;;
8421;SDS011;4248;48.196;10.924;2023-05-06T13:39:22;3.40;;;1.47;;
8421;SDS011;4248;48.196;10.924;2023-05-06T13:41:49;4.20;;;1.67;;
8421;SDS011;4248;48.196;10.924;2023-05-06T13:44:15;4.13;;;1.90;;
8421;SDS011;4248;48.196;10.924;2023-05-06T13:46:44;5.03;;;1.83;;
8421;SDS011;4248;48.196;10.924;2023-05-06T13:49:10;4.20;;;1.57;;
8421;SDS011;4248;48.196;10.924;2023-05-06T13:51:36;4.07;;;2.07;;
8421;SDS011;4248;48.196;10.924;2023-05-06T13:54:02;3.10;;;1.80;;
8421;SDS011;4248;48.196;10.924;2023-05-06T13:56:28;4.60;;;1.90;;
8421;SDS011;4248;48.196;10.924;2023-05-06T13:58:54;3.90;;;1.70;;
8421;SDS011;4248;48.196;10.924;2023-05-06T14:01:19;2.60;;;1.33;;
8421;SDS011;4248;48.196;10.924;2023-05-06T14:03:45;4.13;;;1.93;;
8421;SDS011;4248;48.196;10.924;2023-05-06T14:06:11;3.10;;;1.50;;
8421;SDS011;4248;48.196;10.924;2023-05-06T14:08:37;6.80;;;1.70;;
8421;SDS011;4248;48.196;10.924;2023-05-06T14:11:02;5.10;;;1.87;;
8421;SDS011;4248;48.196;10.924;2023-05-06T14:13:29;3.40;;;1.33;;
8421;SDS011;4248;48.196;10.924;2023-05-06T14:15:56;3.50;;;1.80;;
8421;SDS011;4248;48.196;10.924;2023-05-06T14:18:21;6.00;;;1.80;;
8421;SDS011;4248;48.196;10.924;2023-05-06T14:20:47;7.00;;;1.50;;
8421;SDS011;4248;48.196;10.924;2023-05-06T14:23:13;3.60;;;1.93;;
8421;SDS011;4248;48.196;10.924;2023-05-06T14:25:38;5.23;;;1.60;;
8421;SDS011;4248;48.196;10.924;2023-05-06T14:28:04;3.23;;;1.50;;
8421;SDS011;4248;48.196;10.924;2023-05-06T14:30:30;5.23;;;1.90;;
8421;SDS011;4248;48.196;10.924;2023-05-06T14:32:56;13.37;;;2.67;;
8421;SDS011;4248;48.196;10.924;2023-05-06T14:35:22;3.97;;;1.87;;
8421;SDS011;4248;48.196;10.924;2023-05-06T14:37:48;7.33;;;2.33;;
8421;SDS011;4248;48.196;10.924;2023-05-06T14:40:14;3.47;;;1.83;;
8421;SDS011;4248;48.196;10.924;2023-05-06T14:42:40;3.97;;;1.90;;
8421;SDS011;4248;48.196;10.924;2023-05-06T14:45:06;4.33;;;1.70;;
8421;SDS011;4248;48.196;10.924;2023-05-06T14:47:32;4.40;;;1.90;;
8421;SDS011;4248;48.196;10.924;2023-05-06T14:49:58;5.10;;;1.93;;
8421;SDS011;4248;48.196;10.924;2023-05-06T14:52:23;3.50;;;1.70;;
8421;SDS011;4248;48.196;10.924;2023-05-06T14:54:49;5.23;;;1.90;;
8421;SDS011;4248;48.196;10.924;2023-05-06T14:57:15;7.40;;;1.80;;
8421;SDS011;4248;48.196;10.924;2023-05-06T14:59:40;3.63;;;1.60;;
8421;SDS011;4248;48.196;10.924;2023-05-06T15:02:06;4.83;;;1.70;;
8421;SDS011;4248;48.196;10.924;2023-05-06T15:04:33;5.67;;;1.83;;
8421;SDS011;4248;48.196;10.924;2023-05-06T15:07:01;4.17;;;1.80;;
8421;SDS011;4248;48.196;10.924;2023-05-06T15:09:27;3.23;;;1.60;;
8421;SDS011;4248;48.196;10.924;2023-05-06T15:11:53;5.10;;;1.63;;
8421;SDS011;4248;48.196;10.924;2023-05-06T15:14:18;4.40;;;1.43;;
8421;SDS011;4248;48.196;10.924;2023-05-06T15:16:44;3.10;;;1.57;;
8421;SDS011;4248;48.196;10.924;2023-05-06T15:19:10;5.40;;;1.83;;
8421;SDS011;4248;48.196;10.924;2023-05-06T15:21:36;4.73;;;1.33;;